sensor_id;sensor_type;location;lat;lon;timestamp;temperature;humidity
19340;HTU21D;9804;52.350;6.684;2023-12-22T00:01:05;9.01;-6.00
19340;HTU21D;9804;52.350;6.684;2023-12-22T00:03:31;9.21;-6.00
19340;HTU21D;9804;52.350;6.684;2023-12-22T00:05:56;9.14;-6.00
19340;HTU21D;9804;52.350;6.684;2023-12-22T00:08:22;9.06;-6.00
19340;HTU21D;9804;52.350;6.684;2023-12-22T00:10:49;9.14;-6.00
19340;HTU21D;9804;52.350;6.684;2023-12-22T00:13:14;9.19;-6.00
19340;HTU21D;9804;52.350;6.684;2023-12-22T00:15:40;9.32;-6.00
19340;HTU21D;9804;52.350;6.684;2023-12-22T00:18:07;9.20;-6.00
19340;HTU21D;9804;52.350;6.684;2023-12-22T00:20:33;9.23;-6.00
19340;HTU21D;9804;52.350;6.684;2023-12-22T00:22:58;9.26;-6.00
19340;HTU21D;9804;52.350;6.684;2023-12-22T00:25:23;9.09;-6.00
19340;HTU21D;9804;52.350;6.684;2023-12-22T00:27:49;9.21;-6.00
19340;HTU21D;9804;52.350;6.684;2023-12-22T00:30:14;9.09;-6.00
19340;HTU21D;9804;52.350;6.684;2023-12-22T00:32:40;9.09;-6.00
19340;HTU21D;9804;52.350;6.684;2023-12-22T00:35:05;9.21;-6.00
19340;HTU21D;9804;52.350;6.684;2023-12-22T00:37:31;9.17;-6.00
19340;HTU21D;9804;52.350;6.684;2023-12-22T00:39:56;9.24;-6.00
19340;HTU21D;9804;52.350;6.684;2023-12-22T00:42:22;9.22;-6.00
19340;HTU21D;9804;52.350;6.684;2023-12-22T00:44:47;9.19;-6.00
19340;HTU21D;9804;52.350;6.684;2023-12-22T00:47:13;9.24;-6.00
19340;HTU21D;9804;52.350;6.684;2023-12-22T00:49:38;9.35;-6.00
19340;HTU21D;9804;52.350;6.684;2023-12-22T00:52:04;9.15;-6.00
19340;HTU21D;9804;52.350;6.684;2023-12-22T00:54:29;9.24;-6.00
19340;HTU21D;9804;52.350;6.684;2023-12-22T00:56:57;9.32;-6.00
19340;HTU21D;9804;52.350;6.684;2023-12-22T00:59:23;9.37;-6.00
19340;HTU21D;9804;52.350;6.684;2023-12-22T01:01:49;9.22;-6.00
19340;HTU21D;9804;52.350;6.684;2023-12-22T01:04:14;9.36;-6.00
19340;HTU21D;9804;52.350;6.684;2023-12-22T01:06:40;9.33;-6.00
19340;HTU21D;9804;52.350;6.684;2023-12-22T01:09:05;9.29;-6.00
19340;HTU21D;9804;52.350;6.684;2023-12-22T01:11:31;9.32;-6.00
19340;HTU21D;9804;52.350;6.684;2023-12-22T01:13:56;9.40;-6.00
19340;HTU21D;9804;52.350;6.684;2023-12-22T01:16:22;9.31;-6.00
19340;HTU21D;9804;52.350;6.684;2023-12-22T01:18:49;9.42;-6.00
19340;HTU21D;9804;52.350;6.684;2023-12-22T01:21:16;9.23;-6.00
19340;HTU21D;9804;52.350;6.684;2023-12-22T01:23:41;9.17;-6.00
19340;HTU21D;9804;52.350;6.684;2023-12-22T01:26:07;9.25;-6.00
19340;HTU21D;9804;52.350;6.684;2023-12-22T01:28:33;9.19;-6.00
19340;HTU21D;9804;52.350;6.684;2023-12-22T01:30:59;9.39;-6.00
19340;HTU21D;9804;52.350;6.684;2023-12-22T01:33:24;9.49;-6.00
19340;HTU21D;9804;52.350;6.684;2023-12-22T01:35:50;9.45;-6.00
19340;HTU21D;9804;52.350;6.684;2023-12-22T01:38:15;9.57;-6.00
19340;HTU21D;9804;52.350;6.684;2023-12-22T01:40:40;9.31;-6.00
19340;HTU21D;9804;52.350;6.684;2023-12-22T01:43:06;9.38;-6.00
19340;HTU21D;9804;52.350;6.684;2023-12-22T01:45:31;9.45;-6.00
19340;HTU21D;9804;52.350;6.684;2023-12-22T01:47:57;9.40;-6.00
19340;HTU21D;9804;52.350;6.684;2023-12-22T01:50:23;9.56;-6.00
19340;HTU21D;9804;52.350;6.684;2023-12-22T01:52:49;9.61;-6.00
19340;HTU21D;9804;52.350;6.684;2023-12-22T01:55:14;9.42;-6.00
19340;HTU21D;9804;52.350;6.684;2023-12-22T01:57:43;9.59;-6.00
19340;HTU21D;9804;52.350;6.684;2023-12-22T02:00:09;9.29;-6.00
19340;HTU21D;9804;52.350;6.684;2023-12-22T02:02:35;9.47;-6.00
19340;HTU21D;9804;52.350;6.684;2023-12-22T02:05:01;9.35;-6.00
19340;HTU21D;9804;52.350;6.684;2023-12-22T02:07:27;9.51;-6.00
19340;HTU21D;9804;52.350;6.684;2023-12-22T02:09:53;9.50;-6.00
19340;HTU21D;9804;52.350;6.684;2023-12-22T02:12:18;9.34;-6.00
19340;HTU21D;9804;52.350;6.684;2023-12-22T02:14:44;9.31;-6.00
19340;HTU21D;9804;52.350;6.684;2023-12-22T02:17:18;9.32;-6.00
19340;HTU21D;9804;52.350;6.684;2023-12-22T02:19:48;8.83;-6.00
19340;HTU21D;9804;52.350;6.684;2023-12-22T02:22:14;8.55;-6.00
19340;HTU21D;9804;52.350;6.684;2023-12-22T02:24:40;8.39;-6.00
19340;HTU21D;9804;52.350;6.684;2023-12-22T02:27:30;8.27;-6.00
19340;HTU21D;9804;52.350;6.684;2023-12-22T02:32:34;8.41;-6.00
19340;HTU21D;9804;52.350;6.684;2023-12-22T02:35:07;8.29;-6.00
19340;HTU21D;9804;52.350;6.684;2023-12-22T02:37:34;8.23;-6.00
19340;HTU21D;9804;52.350;6.684;2023-12-22T02:40:01;8.03;-6.00
19340;HTU21D;9804;52.350;6.684;2023-12-22T02:42:28;7.97;-6.00
19340;HTU21D;9804;52.350;6.684;2023-12-22T02:44:58;7.86;-6.00
19340;HTU21D;9804;52.350;6.684;2023-12-22T02:47:24;7.94;-6.00
19340;HTU21D;9804;52.350;6.684;2023-12-22T02:49:50;7.99;-6.00
19340;HTU21D;9804;52.350;6.684;2023-12-22T02:52:15;8.03;-6.00
19340;HTU21D;9804;52.350;6.684;2023-12-22T02:54:40;8.16;-6.00
19340;HTU21D;9804;52.350;6.684;2023-12-22T02:57:09;8.18;-6.00
19340;HTU21D;9804;52.350;6.684;2023-12-22T02:59:34;7.94;-6.00
19340;HTU21D;9804;52.350;6.684;2023-12-22T03:02:00;7.89;-6.00
19340;HTU21D;9804;52.350;6.684;2023-12-22T03:04:25;7.71;-6.00
19340;HTU21D;9804;52.350;6.684;2023-12-22T03:06:51;7.68;-6.00
19340;HTU21D;9804;52.350;6.684;2023-12-22T03:09:16;7.79;-6.00
19340;HTU21D;9804;52.350;6.684;2023-12-22T03:11:42;7.81;-6.00
19340;HTU21D;9804;52.350;6.684;2023-12-22T03:14:08;7.79;-6.00
19340;HTU21D;9804;52.350;6.684;2023-12-22T03:16:34;7.78;-6.00
19340;HTU21D;9804;52.350;6.684;2023-12-22T03:18:59;7.77;-6.00
19340;HTU21D;9804;52.350;6.684;2023-12-22T03:21:25;7.79;-6.00
19340;HTU21D;9804;52.350;6.684;2023-12-22T03:23:50;7.89;-6.00
19340;HTU21D;9804;52.350;6.684;2023-12-22T03:26:15;7.92;-6.00
19340;HTU21D;9804;52.350;6.684;2023-12-22T03:28:41;8.04;-6.00
19340;HTU21D;9804;52.350;6.684;2023-12-22T03:31:06;8.13;-6.00
19340;HTU21D;9804;52.350;6.684;2023-12-22T03:33:33;8.03;-6.00
19340;HTU21D;9804;52.350;6.684;2023-12-22T03:35:58;8.07;-6.00
19340;HTU21D;9804;52.350;6.684;2023-12-22T03:38:24;8.00;-6.00
19340;HTU21D;9804;52.350;6.684;2023-12-22T03:40:49;7.99;-6.00
19340;HTU21D;9804;52.350;6.684;2023-12-22T03:43:14;7.96;0.67
19340;HTU21D;9804;52.350;6.684;2023-12-22T03:45:40;7.90;1.76
19340;HTU21D;9804;52.350;6.684;2023-12-22T03:48:06;8.13;-6.00
19340;HTU21D;9804;52.350;6.684;2023-12-22T03:50:31;8.06;-6.00
19340;HTU21D;9804;52.350;6.684;2023-12-22T03:52:56;8.06;-6.00
19340;HTU21D;9804;52.350;6.684;2023-12-22T03:55:22;8.15;-6.00
19340;HTU21D;9804;52.350;6.684;2023-12-22T03:57:47;8.07;-6.00
19340;HTU21D;9804;52.350;6.684;2023-12-22T04:00:13;8.11;-6.00
19340;HTU21D;9804;52.350;6.684;2023-12-22T04:02:40;8.03;-6.00
19340;HTU21D;9804;52.350;6.684;2023-12-22T04:05:05;8.03;-6.00
19340;HTU21D;9804;52.350;6.684;2023-12-22T04:07:31;8.11;-6.00
19340;HTU21D;9804;52.350;6.684;2023-12-22T04:09:56;8.12;-6.00
19340;HTU21D;9804;52.350;6.684;2023-12-22T04:12:21;8.08;-6.00
19340;HTU21D;9804;52.350;6.684;2023-12-22T04:14:47;7.98;-6.00
19340;HTU21D;9804;52.350;6.684;2023-12-22T04:17:12;7.94;-6.00
19340;HTU21D;9804;52.350;6.684;2023-12-22T04:19:38;7.99;-6.00
19340;HTU21D;9804;52.350;6.684;2023-12-22T04:22:03;7.97;-6.00
19340;HTU21D;9804;52.350;6.684;2023-12-22T04:24:29;8.12;-6.00
19340;HTU21D;9804;52.350;6.684;2023-12-22T04:26:54;8.03;-6.00
19340;HTU21D;9804;52.350;6.684;2023-12-22T04:29:20;8.01;-6.00
19340;HTU21D;9804;52.350;6.684;2023-12-22T04:31:45;8.19;-6.00
19340;HTU21D;9804;52.350;6.684;2023-12-22T04:34:13;8.11;-6.00
19340;HTU21D;9804;52.350;6.684;2023-12-22T04:36:39;8.24;-6.00
19340;HTU21D;9804;52.350;6.684;2023-12-22T04:39:04;8.16;-6.00
19340;HTU21D;9804;52.350;6.684;2023-12-22T04:41:30;8.12;-6.00
19340;HTU21D;9804;52.350;6.684;2023-12-22T04:43:55;8.07;-6.00
19340;HTU21D;9804;52.350;6.684;2023-12-22T04:46:21;8.11;-6.00
19340;HTU21D;9804;52.350;6.684;2023-12-22T04:48:46;8.09;-6.00
19340;HTU21D;9804;52.350;6.684;2023-12-22T04:51:11;8.03;-6.00
19340;HTU21D;9804;52.350;6.684;2023-12-22T04:53:37;8.05;-6.00
19340;HTU21D;9804;52.350;6.684;2023-12-22T04:56:03;8.08;-6.00
19340;HTU21D;9804;52.350;6.684;2023-12-22T04:58:28;8.29;-6.00
19340;HTU21D;9804;52.350;6.684;2023-12-22T05:00:54;8.17;-6.00
19340;HTU21D;9804;52.350;6.684;2023-12-22T05:03:19;8.14;-6.00
19340;HTU21D;9804;52.350;6.684;2023-12-22T05:05:45;8.17;-6.00
19340;HTU21D;9804;52.350;6.684;2023-12-22T05:08:10;8.26;-6.00
19340;HTU21D;9804;52.350;6.684;2023-12-22T05:10:36;8.13;-6.00
19340;HTU21D;9804;52.350;6.684;2023-12-22T05:13:01;8.26;-6.00
19340;HTU21D;9804;52.350;6.684;2023-12-22T05:15:26;8.41;-6.00
19340;HTU21D;9804;52.350;6.684;2023-12-22T05:17:52;8.29;-6.00
19340;HTU21D;9804;52.350;6.684;2023-12-22T05:20:18;8.38;-6.00
19340;HTU21D;9804;52.350;6.684;2023-12-22T05:22:43;8.41;-6.00
19340;HTU21D;9804;52.350;6.684;2023-12-22T05:25:09;8.45;-6.00
19340;HTU21D;9804;52.350;6.684;2023-12-22T05:27:35;8.47;-6.00
19340;HTU21D;9804;52.350;6.684;2023-12-22T05:30:01;8.51;-6.00
19340;HTU21D;9804;52.350;6.684;2023-12-22T05:32:29;8.55;-6.00
19340;HTU21D;9804;52.350;6.684;2023-12-22T05:34:54;8.65;-6.00
19340;HTU21D;9804;52.350;6.684;2023-12-22T05:37:20;8.46;-6.00
19340;HTU21D;9804;52.350;6.684;2023-12-22T05:39:45;8.49;-6.00
19340;HTU21D;9804;52.350;6.684;2023-12-22T05:42:11;8.55;-6.00
19340;HTU21D;9804;52.350;6.684;2023-12-22T05:44:36;8.56;-6.00
19340;HTU21D;9804;52.350;6.684;2023-12-22T05:47:04;8.35;-6.00
19340;HTU21D;9804;52.350;6.684;2023-12-22T05:49:30;8.63;-6.00
19340;HTU21D;9804;52.350;6.684;2023-12-22T05:51:56;8.43;-6.00
19340;HTU21D;9804;52.350;6.684;2023-12-22T05:54:21;8.41;-6.00
19340;HTU21D;9804;52.350;6.684;2023-12-22T05:56:47;8.50;-6.00
19340;HTU21D;9804;52.350;6.684;2023-12-22T05:59:12;8.59;-6.00
19340;HTU21D;9804;52.350;6.684;2023-12-22T06:01:37;8.35;-6.00
19340;HTU21D;9804;52.350;6.684;2023-12-22T06:04:03;8.55;-6.00
19340;HTU21D;9804;52.350;6.684;2023-12-22T06:06:28;8.55;-6.00
19340;HTU21D;9804;52.350;6.684;2023-12-22T06:08:55;8.61;-6.00
19340;HTU21D;9804;52.350;6.684;2023-12-22T06:11:21;8.56;-6.00
19340;HTU21D;9804;52.350;6.684;2023-12-22T06:13:47;8.61;-6.00
19340;HTU21D;9804;52.350;6.684;2023-12-22T06:16:13;8.74;-6.00
19340;HTU21D;9804;52.350;6.684;2023-12-22T06:18:40;8.73;-6.00
19340;HTU21D;9804;52.350;6.684;2023-12-22T06:21:06;8.83;-6.00
19340;HTU21D;9804;52.350;6.684;2023-12-22T06:23:31;8.83;-6.00
19340;HTU21D;9804;52.350;6.684;2023-12-22T06:25:57;9.00;-6.00
19340;HTU21D;9804;52.350;6.684;2023-12-22T06:28:22;8.95;-6.00
19340;HTU21D;9804;52.350;6.684;2023-12-22T06:30:48;8.90;-6.00
19340;HTU21D;9804;52.350;6.684;2023-12-22T06:33:13;8.93;-6.00
19340;HTU21D;9804;52.350;6.684;2023-12-22T06:35:38;9.04;-6.00
19340;HTU21D;9804;52.350;6.684;2023-12-22T06:38:06;8.90;-6.00
19340;HTU21D;9804;52.350;6.684;2023-12-22T06:40:33;9.04;-6.00
19340;HTU21D;9804;52.350;6.684;2023-12-22T06:42:59;9.04;-6.00
19340;HTU21D;9804;52.350;6.684;2023-12-22T06:45:25;9.04;-6.00
19340;HTU21D;9804;52.350;6.684;2023-12-22T06:47:50;8.88;-6.00
19340;HTU21D;9804;52.350;6.684;2023-12-22T06:50:16;8.73;-6.00
19340;HTU21D;9804;52.350;6.684;2023-12-22T06:52:41;8.80;-2.83
19340;HTU21D;9804;52.350;6.684;2023-12-22T06:55:07;8.70;-6.00
19340;HTU21D;9804;52.350;6.684;2023-12-22T06:57:32;8.85;-6.00
19340;HTU21D;9804;52.350;6.684;2023-12-22T06:59:58;8.75;-6.00
19340;HTU21D;9804;52.350;6.684;2023-12-22T07:02:23;8.72;0.27
19340;HTU21D;9804;52.350;6.684;2023-12-22T07:07:47;8.86;50.76
19340;HTU21D;9804;52.350;6.684;2023-12-22T07:10:14;8.74;100.03
19340;HTU21D;9804;52.350;6.684;2023-12-22T07:12:39;8.70;118.99
19340;HTU21D;9804;52.350;6.684;2023-12-22T07:15:05;8.51;118.99
19340;HTU21D;9804;52.350;6.684;2023-12-22T07:17:32;8.43;118.99
19340;HTU21D;9804;52.350;6.684;2023-12-22T07:19:58;8.31;118.99
19340;HTU21D;9804;52.350;6.684;2023-12-22T07:22:23;8.36;118.99
19340;HTU21D;9804;52.350;6.684;2023-12-22T07:24:48;8.13;118.99
19340;HTU21D;9804;52.350;6.684;2023-12-22T07:27:15;8.27;118.99
19340;HTU21D;9804;52.350;6.684;2023-12-22T07:29:41;8.18;118.99
19340;HTU21D;9804;52.350;6.684;2023-12-22T07:32:06;8.19;118.99
19340;HTU21D;9804;52.350;6.684;2023-12-22T07:34:32;8.21;118.99
19340;HTU21D;9804;52.350;6.684;2023-12-22T07:36:57;8.13;118.99
19340;HTU21D;9804;52.350;6.684;2023-12-22T07:39:23;8.30;118.99
19340;HTU21D;9804;52.350;6.684;2023-12-22T07:41:48;8.24;118.99
19340;HTU21D;9804;52.350;6.684;2023-12-22T07:44:14;8.33;118.99
19340;HTU21D;9804;52.350;6.684;2023-12-22T07:46:39;8.27;118.99
19340;HTU21D;9804;52.350;6.684;2023-12-22T07:49:05;8.32;118.99
19340;HTU21D;9804;52.350;6.684;2023-12-22T07:51:30;8.37;118.99
19340;HTU21D;9804;52.350;6.684;2023-12-22T07:53:55;8.21;118.99
19340;HTU21D;9804;52.350;6.684;2023-12-22T07:56:21;8.28;118.99
19340;HTU21D;9804;52.350;6.684;2023-12-22T07:58:46;8.23;118.99
19340;HTU21D;9804;52.350;6.684;2023-12-22T08:01:12;8.37;118.99
19340;HTU21D;9804;52.350;6.684;2023-12-22T08:03:37;8.31;118.99
19340;HTU21D;9804;52.350;6.684;2023-12-22T08:06:03;8.26;118.99
19340;HTU21D;9804;52.350;6.684;2023-12-22T08:08:29;8.37;118.99
19340;HTU21D;9804;52.350;6.684;2023-12-22T08:10:54;8.37;118.99
19340;HTU21D;9804;52.350;6.684;2023-12-22T08:13:20;8.32;118.99
19340;HTU21D;9804;52.350;6.684;2023-12-22T08:15:45;8.33;118.99
19340;HTU21D;9804;52.350;6.684;2023-12-22T08:18:11;8.38;118.99
19340;HTU21D;9804;52.350;6.684;2023-12-22T08:20:36;8.33;118.99
19340;HTU21D;9804;52.350;6.684;2023-12-22T08:23:02;8.35;118.99
19340;HTU21D;9804;52.350;6.684;2023-12-22T08:25:28;8.46;118.99
19340;HTU21D;9804;52.350;6.684;2023-12-22T08:27:53;8.47;118.99
19340;HTU21D;9804;52.350;6.684;2023-12-22T08:30:19;8.55;118.99
19340;HTU21D;9804;52.350;6.684;2023-12-22T08:32:44;8.47;118.99
19340;HTU21D;9804;52.350;6.684;2023-12-22T08:35:10;8.51;118.99
19340;HTU21D;9804;52.350;6.684;2023-12-22T08:37:35;8.60;118.99
19340;HTU21D;9804;52.350;6.684;2023-12-22T08:40:02;8.79;118.99
19340;HTU21D;9804;52.350;6.684;2023-12-22T08:42:29;8.61;118.99
19340;HTU21D;9804;52.350;6.684;2023-12-22T08:44:55;8.81;118.99
19340;HTU21D;9804;52.350;6.684;2023-12-22T08:47:21;8.87;118.99
19340;HTU21D;9804;52.350;6.684;2023-12-22T08:49:46;8.85;118.99
19340;HTU21D;9804;52.350;6.684;2023-12-22T08:52:12;8.79;118.99
19340;HTU21D;9804;52.350;6.684;2023-12-22T08:54:38;8.77;118.99
19340;HTU21D;9804;52.350;6.684;2023-12-22T08:57:04;9.02;118.99
19340;HTU21D;9804;52.350;6.684;2023-12-22T08:59:29;8.89;118.99
19340;HTU21D;9804;52.350;6.684;2023-12-22T09:01:55;8.78;118.99
19340;HTU21D;9804;52.350;6.684;2023-12-22T09:04:20;9.01;118.99
19340;HTU21D;9804;52.350;6.684;2023-12-22T09:06:48;9.07;118.99
19340;HTU21D;9804;52.350;6.684;2023-12-22T09:09:14;8.95;118.99
19340;HTU21D;9804;52.350;6.684;2023-12-22T09:11:39;9.05;118.99
19340;HTU21D;9804;52.350;6.684;2023-12-22T09:14:05;9.10;118.99
19340;HTU21D;9804;52.350;6.684;2023-12-22T09:16:34;9.01;118.99
19340;HTU21D;9804;52.350;6.684;2023-12-22T09:19:00;8.91;118.99
19340;HTU21D;9804;52.350;6.684;2023-12-22T09:21:26;9.17;118.99
19340;HTU21D;9804;52.350;6.684;2023-12-22T09:23:51;9.00;118.99
19340;HTU21D;9804;52.350;6.684;2023-12-22T09:26:17;9.01;118.99
19340;HTU21D;9804;52.350;6.684;2023-12-22T09:28:43;9.14;118.99
19340;HTU21D;9804;52.350;6.684;2023-12-22T09:31:09;8.95;118.99
19340;HTU21D;9804;52.350;6.684;2023-12-22T09:33:36;8.86;118.99
19340;HTU21D;9804;52.350;6.684;2023-12-22T09:36:01;8.95;118.99
19340;HTU21D;9804;52.350;6.684;2023-12-22T09:38:27;8.94;118.99
19340;HTU21D;9804;52.350;6.684;2023-12-22T09:40:55;9.12;118.99
19340;HTU21D;9804;52.350;6.684;2023-12-22T09:43:21;9.07;118.99
19340;HTU21D;9804;52.350;6.684;2023-12-22T09:45:48;8.71;118.99
19340;HTU21D;9804;52.350;6.684;2023-12-22T09:48:15;8.91;118.99
19340;HTU21D;9804;52.350;6.684;2023-12-22T09:50:44;8.82;118.99
19340;HTU21D;9804;52.350;6.684;2023-12-22T09:53:13;9.01;118.99
19340;HTU21D;9804;52.350;6.684;2023-12-22T09:55:44;9.00;118.99
19340;HTU21D;9804;52.350;6.684;2023-12-22T09:58:12;8.86;118.99
19340;HTU21D;9804;52.350;6.684;2023-12-22T10:00:39;9.01;118.99
19340;HTU21D;9804;52.350;6.684;2023-12-22T10:03:06;9.02;118.99
19340;HTU21D;9804;52.350;6.684;2023-12-22T10:05:33;8.78;118.99
19340;HTU21D;9804;52.350;6.684;2023-12-22T10:08:00;9.12;118.99
19340;HTU21D;9804;52.350;6.684;2023-12-22T10:10:27;8.78;118.99
19340;HTU21D;9804;52.350;6.684;2023-12-22T10:12:54;8.62;118.99
19340;HTU21D;9804;52.350;6.684;2023-12-22T10:15:21;8.78;118.99
19340;HTU21D;9804;52.350;6.684;2023-12-22T10:17:50;8.75;118.99
19340;HTU21D;9804;52.350;6.684;2023-12-22T10:20:16;8.77;118.99
19340;HTU21D;9804;52.350;6.684;2023-12-22T10:22:41;8.71;118.99
19340;HTU21D;9804;52.350;6.684;2023-12-22T10:25:08;8.77;118.99
19340;HTU21D;9804;52.350;6.684;2023-12-22T10:27:36;8.63;118.99
19340;HTU21D;9804;52.350;6.684;2023-12-22T10:30:03;8.42;118.99
19340;HTU21D;9804;52.350;6.684;2023-12-22T10:32:29;8.63;118.99
19340;HTU21D;9804;52.350;6.684;2023-12-22T10:34:55;8.61;118.99
19340;HTU21D;9804;52.350;6.684;2023-12-22T10:37:22;8.59;118.99
19340;HTU21D;9804;52.350;6.684;2023-12-22T10:39:52;8.68;118.99
19340;HTU21D;9804;52.350;6.684;2023-12-22T10:42:19;8.85;118.99
19340;HTU21D;9804;52.350;6.684;2023-12-22T10:44:44;8.68;118.99
19340;HTU21D;9804;52.350;6.684;2023-12-22T10:47:10;9.06;118.99
19340;HTU21D;9804;52.350;6.684;2023-12-22T10:49:36;8.76;118.99
19340;HTU21D;9804;52.350;6.684;2023-12-22T10:52:02;8.83;118.99
19340;HTU21D;9804;52.350;6.684;2023-12-22T10:54:27;8.70;118.99
19340;HTU21D;9804;52.350;6.684;2023-12-22T10:56:57;8.67;118.99
19340;HTU21D;9804;52.350;6.684;2023-12-22T10:59:28;8.63;118.99
19340;HTU21D;9804;52.350;6.684;2023-12-22T11:01:54;8.66;118.99
19340;HTU21D;9804;52.350;6.684;2023-12-22T11:04:22;8.70;118.99
19340;HTU21D;9804;52.350;6.684;2023-12-22T11:06:49;8.55;118.99
19340;HTU21D;9804;52.350;6.684;2023-12-22T11:09:17;8.64;118.99
19340;HTU21D;9804;52.350;6.684;2023-12-22T11:11:46;8.43;118.99
19340;HTU21D;9804;52.350;6.684;2023-12-22T11:14:13;8.45;118.99
19340;HTU21D;9804;52.350;6.684;2023-12-22T11:16:41;8.51;118.99
19340;HTU21D;9804;52.350;6.684;2023-12-22T11:19:07;8.44;118.99
19340;HTU21D;9804;52.350;6.684;2023-12-22T11:21:35;8.51;118.99
19340;HTU21D;9804;52.350;6.684;2023-12-22T11:24:02;8.52;118.99
19340;HTU21D;9804;52.350;6.684;2023-12-22T11:26:29;8.55;118.99
19340;HTU21D;9804;52.350;6.684;2023-12-22T11:28:56;8.51;118.99
19340;HTU21D;9804;52.350;6.684;2023-12-22T11:31:23;8.45;118.99
19340;HTU21D;9804;52.350;6.684;2023-12-22T11:33:50;8.61;118.99
19340;HTU21D;9804;52.350;6.684;2023-12-22T11:36:17;8.59;118.99
19340;HTU21D;9804;52.350;6.684;2023-12-22T11:38:44;8.56;118.99
19340;HTU21D;9804;52.350;6.684;2023-12-22T11:41:15;8.51;118.99
19340;HTU21D;9804;52.350;6.684;2023-12-22T11:43:43;8.52;118.99
19340;HTU21D;9804;52.350;6.684;2023-12-22T11:46:09;8.38;118.99
19340;HTU21D;9804;52.350;6.684;2023-12-22T11:48:35;8.68;118.99
19340;HTU21D;9804;52.350;6.684;2023-12-22T11:51:12;8.65;118.99
19340;HTU21D;9804;52.350;6.684;2023-12-22T11:53:38;8.51;118.99
19340;HTU21D;9804;52.350;6.684;2023-12-22T11:56:05;8.63;118.99
19340;HTU21D;9804;52.350;6.684;2023-12-22T12:01:10;8.76;118.99
19340;HTU21D;9804;52.350;6.684;2023-12-22T12:03:58;8.56;118.99
19340;HTU21D;9804;52.350;6.684;2023-12-22T12:08:59;8.87;118.99
19340;HTU21D;9804;52.350;6.684;2023-12-22T12:14:22;8.52;118.99
19340;HTU21D;9804;52.350;6.684;2023-12-22T12:16:48;8.68;118.99
19340;HTU21D;9804;52.350;6.684;2023-12-22T12:19:14;8.83;118.99
19340;HTU21D;9804;52.350;6.684;2023-12-22T12:21:40;8.77;118.99
19340;HTU21D;9804;52.350;6.684;2023-12-22T12:24:06;8.63;118.99
19340;HTU21D;9804;52.350;6.684;2023-12-22T12:26:34;8.87;118.99
19340;HTU21D;9804;52.350;6.684;2023-12-22T12:29:01;8.80;118.99
19340;HTU21D;9804;52.350;6.684;2023-12-22T12:31:36;8.92;118.99
19340;HTU21D;9804;52.350;6.684;2023-12-22T12:34:07;8.77;118.99
19340;HTU21D;9804;52.350;6.684;2023-12-22T12:36:33;8.91;118.99
19340;HTU21D;9804;52.350;6.684;2023-12-22T12:39:06;8.92;118.99
19340;HTU21D;9804;52.350;6.684;2023-12-22T12:41:43;8.89;118.99
19340;HTU21D;9804;52.350;6.684;2023-12-22T12:44:11;8.75;118.99
19340;HTU21D;9804;52.350;6.684;2023-12-22T12:46:39;9.01;118.99
19340;HTU21D;9804;52.350;6.684;2023-12-22T12:49:05;8.74;118.99
19340;HTU21D;9804;52.350;6.684;2023-12-22T12:51:38;8.89;118.99
19340;HTU21D;9804;52.350;6.684;2023-12-22T12:54:05;8.93;118.99
19340;HTU21D;9804;52.350;6.684;2023-12-22T12:56:41;8.90;118.99
19340;HTU21D;9804;52.350;6.684;2023-12-22T12:59:08;8.91;118.99
19340;HTU21D;9804;52.350;6.684;2023-12-22T13:01:41;9.03;118.99
19340;HTU21D;9804;52.350;6.684;2023-12-22T13:04:06;8.95;118.99
19340;HTU21D;9804;52.350;6.684;2023-12-22T13:06:32;8.85;118.99
19340;HTU21D;9804;52.350;6.684;2023-12-22T13:08:58;8.88;118.99
19340;HTU21D;9804;52.350;6.684;2023-12-22T13:11:26;8.91;118.99
19340;HTU21D;9804;52.350;6.684;2023-12-22T13:13:52;9.05;118.99
19340;HTU21D;9804;52.350;6.684;2023-12-22T13:16:22;8.97;118.99
19340;HTU21D;9804;52.350;6.684;2023-12-22T13:18:51;9.10;118.99
19340;HTU21D;9804;52.350;6.684;2023-12-22T13:21:17;8.89;118.99
19340;HTU21D;9804;52.350;6.684;2023-12-22T13:23:43;8.92;118.99
19340;HTU21D;9804;52.350;6.684;2023-12-22T13:26:18;9.06;118.99
19340;HTU21D;9804;52.350;6.684;2023-12-22T13:28:44;8.95;118.99
19340;HTU21D;9804;52.350;6.684;2023-12-22T13:31:10;9.22;118.99
19340;HTU21D;9804;52.350;6.684;2023-12-22T13:33:39;8.97;118.99
19340;HTU21D;9804;52.350;6.684;2023-12-22T13:36:05;9.08;118.99
19340;HTU21D;9804;52.350;6.684;2023-12-22T13:38:32;9.07;118.99
19340;HTU21D;9804;52.350;6.684;2023-12-22T13:41:01;9.07;118.99
19340;HTU21D;9804;52.350;6.684;2023-12-22T13:43:31;9.11;118.99
19340;HTU21D;9804;52.350;6.684;2023-12-22T13:45:57;9.24;118.99
19340;HTU21D;9804;52.350;6.684;2023-12-22T13:48:23;9.31;118.99
19340;HTU21D;9804;52.350;6.684;2023-12-22T13:50:56;9.36;118.99
19340;HTU21D;9804;52.350;6.684;2023-12-22T13:53:23;9.22;118.99
19340;HTU21D;9804;52.350;6.684;2023-12-22T13:56:00;9.36;118.99
19340;HTU21D;9804;52.350;6.684;2023-12-22T13:58:27;9.26;118.99
19340;HTU21D;9804;52.350;6.684;2023-12-22T14:00:53;9.27;118.99
19340;HTU21D;9804;52.350;6.684;2023-12-22T14:03:19;9.12;118.99
19340;HTU21D;9804;52.350;6.684;2023-12-22T14:05:48;9.35;118.99
19340;HTU21D;9804;52.350;6.684;2023-12-22T14:08:15;9.08;118.99
19340;HTU21D;9804;52.350;6.684;2023-12-22T14:10:50;9.49;118.99
19340;HTU21D;9804;52.350;6.684;2023-12-22T14:13:15;9.33;118.99
19340;HTU21D;9804;52.350;6.684;2023-12-22T14:15:44;9.30;118.99
19340;HTU21D;9804;52.350;6.684;2023-12-22T14:18:10;9.29;118.99
19340;HTU21D;9804;52.350;6.684;2023-12-22T14:20:36;9.27;118.99
19340;HTU21D;9804;52.350;6.684;2023-12-22T14:23:01;9.34;118.99
19340;HTU21D;9804;52.350;6.684;2023-12-22T14:25:27;9.25;118.99
19340;HTU21D;9804;52.350;6.684;2023-12-22T14:27:53;9.34;118.99
19340;HTU21D;9804;52.350;6.684;2023-12-22T14:30:23;9.32;118.99
19340;HTU21D;9804;52.350;6.684;2023-12-22T14:32:48;9.48;118.99
19340;HTU21D;9804;52.350;6.684;2023-12-22T14:35:13;9.57;118.99
19340;HTU21D;9804;52.350;6.684;2023-12-22T14:37:39;9.56;118.99
19340;HTU21D;9804;52.350;6.684;2023-12-22T14:40:06;9.51;118.99
19340;HTU21D;9804;52.350;6.684;2023-12-22T14:42:32;9.52;118.99
19340;HTU21D;9804;52.350;6.684;2023-12-22T14:44:58;9.72;118.99
19340;HTU21D;9804;52.350;6.684;2023-12-22T14:47:23;9.90;118.99
19340;HTU21D;9804;52.350;6.684;2023-12-22T14:49:49;9.67;118.99
19340;HTU21D;9804;52.350;6.684;2023-12-22T14:52:14;9.42;118.99
19340;HTU21D;9804;52.350;6.684;2023-12-22T14:54:40;9.62;118.99
19340;HTU21D;9804;52.350;6.684;2023-12-22T14:57:07;9.83;118.99
19340;HTU21D;9804;52.350;6.684;2023-12-22T14:59:32;9.99;118.99
19340;HTU21D;9804;52.350;6.684;2023-12-22T15:01:58;10.13;118.99
19340;HTU21D;9804;52.350;6.684;2023-12-22T15:04:23;9.67;118.99
19340;HTU21D;9804;52.350;6.684;2023-12-22T15:06:49;9.03;118.99
19340;HTU21D;9804;52.350;6.684;2023-12-22T15:09:15;8.86;118.99
19340;HTU21D;9804;52.350;6.684;2023-12-22T15:11:43;8.82;118.99
19340;HTU21D;9804;52.350;6.684;2023-12-22T15:14:09;8.80;118.99
19340;HTU21D;9804;52.350;6.684;2023-12-22T15:16:39;8.85;118.99
19340;HTU21D;9804;52.350;6.684;2023-12-22T15:19:06;8.93;118.99
19340;HTU21D;9804;52.350;6.684;2023-12-22T15:21:32;8.75;118.99
19340;HTU21D;9804;52.350;6.684;2023-12-22T15:23:58;8.89;118.99
19340;HTU21D;9804;52.350;6.684;2023-12-22T15:26:24;9.06;118.99
19340;HTU21D;9804;52.350;6.684;2023-12-22T15:28:53;8.95;118.99
19340;HTU21D;9804;52.350;6.684;2023-12-22T15:31:18;8.82;118.99
19340;HTU21D;9804;52.350;6.684;2023-12-22T15:33:44;8.83;118.99
19340;HTU21D;9804;52.350;6.684;2023-12-22T15:36:09;9.00;118.99
19340;HTU21D;9804;52.350;6.684;2023-12-22T15:38:35;8.98;118.99
19340;HTU21D;9804;52.350;6.684;2023-12-22T15:41:01;9.08;118.99
19340;HTU21D;9804;52.350;6.684;2023-12-22T15:43:27;9.12;118.99
19340;HTU21D;9804;52.350;6.684;2023-12-22T15:45:52;9.04;118.99